This is the latest recevied weather packets stored in our database for station/object SAVIL. If no packets are shown the sender has not sent any weather packets the latest 10 day(s).
| Time | Temp. | Humidity | Pressure | Rain* | Wind** | Luminosity | Snow |
|---|---|---|---|---|---|---|---|
| 1777874827 | 7.22° C | 47% | 1004.9 hPa | 0 mm | - | - | - |
| 1777873627 | 6.11° C | 50% | 1005.2 hPa | 0 mm | - | - | - |
| 1777872427 | 6.11° C | 51% | 1005.5 hPa | 0 mm | - | - | - |
| 1777871227 | 5° C | 55% | 1005.9 hPa | 0 mm | - | - | - |
| 1777870027 | 4.44° C | 58% | 1006.2 hPa | 0 mm | - | - | - |
| 1777868827 | 4.44° C | 57% | 1006.5 hPa | 0 mm | - | - | - |
| 1777867627 | 4.44° C | 55% | 1006.5 hPa | 0 mm | - | - | - |
| 1777866427 | 4.44° C | 54% | 1006.7 hPa | 0 mm | - | - | - |
| 1777865227 | 3.89° C | 55% | 1006.7 hPa | 0 mm | - | - | - |
| 1777864027 | 2.22° C | 75% | 1006.8 hPa | 0 mm | - | - | - |
| 1777862827 | 0.56° C | 88% | 1007 hPa | 0 mm | - | - | - |
| 1777861627 | 0.56° C | 91% | 1007.1 hPa | 0 mm | - | - | - |
| 1777860427 | 0.56° C | 88% | 1007.3 hPa | 0 mm | - | - | - |
| 1777859227 | 0.56° C | 86% | 1007.3 hPa | 0 mm | - | - | - |
| 1777858027 | 0.56° C | 89% | 1007.3 hPa | 0 mm | - | - | - |
| 1777856827 | 1.11° C | 83% | 1007.4 hPa | 0 mm | - | - | - |
| 1777855626 | 1.11° C | 83% | 1007.3 hPa | 0 mm | - | - | - |
| 1777854426 | 1.11° C | 83% | 1007.4 hPa | 0 mm | - | - | - |
| 1777853226 | 1.67° C | 80% | 1007.4 hPa | 0 mm | - | - | - |
| 1777852026 | 1.67° C | 80% | 1007.4 hPa | 0 mm | - | - | - |
| 1777850826 | 1.67° C | 82% | 1007.3 hPa | 0 mm | - | - | - |
| 1777849626 | 2.22° C | 73% | 1007.3 hPa | 0 mm | - | - | - |
| 1777848426 | 2.22° C | 78% | 1007.3 hPa | 0 mm | - | - | - |
| 1777847226 | 2.78° C | 74% | 1007.3 hPa | 0 mm | - | - | - |
| 1777846026 | 3.33° C | 67% | 1007.3 hPa | 0 mm | - | - | - |
* Rain latest hour (hover to see other rain measurements)
** Current wind speed in m/s (hover to see current wind gust speed)